createdAt,value
2018-07-20T00:00:52.992Z,2.80
2018-07-20T00:03:20.554Z,2.60
2018-07-20T00:05:47.960Z,2.27
2018-07-20T00:08:15.453Z,2.10
2018-07-20T00:10:43.451Z,3.00
2018-07-20T00:13:10.972Z,2.60
2018-07-20T00:15:38.386Z,2.23
2018-07-20T00:18:06.205Z,2.10
2018-07-20T00:20:33.638Z,2.63
2018-07-20T00:23:01.151Z,2.53
2018-07-20T00:25:28.780Z,2.37
2018-07-20T00:27:56.233Z,2.87
2018-07-20T00:30:23.939Z,2.40
2018-07-20T00:32:51.361Z,2.70
2018-07-20T00:35:18.814Z,2.03
2018-07-20T00:37:46.203Z,2.00
2018-07-20T00:40:13.765Z,1.87
2018-07-20T00:42:41.253Z,2.23
2018-07-20T00:45:08.629Z,2.17
2018-07-20T00:47:36.090Z,2.77
2018-07-20T00:50:04.032Z,2.90
2018-07-20T00:52:31.538Z,3.13
2018-07-20T00:54:59.003Z,2.77
2018-07-20T00:57:26.446Z,2.67
2018-07-20T00:59:53.967Z,2.50
2018-07-20T01:02:21.414Z,2.90
2018-07-20T01:04:48.926Z,2.67
2018-07-20T01:07:16.473Z,3.03
2018-07-20T01:09:44.415Z,2.40
2018-07-20T01:12:12.573Z,3.20
2018-07-20T01:14:40.059Z,2.83
2018-07-20T01:17:07.512Z,3.07
2018-07-20T01:19:34.913Z,2.90
2018-07-20T01:22:02.579Z,3.17
2018-07-20T01:24:30.141Z,3.27
2018-07-20T01:26:57.535Z,3.10
2018-07-20T01:29:25.001Z,3.13
2018-07-20T01:31:52.470Z,2.83
2018-07-20T01:34:20.096Z,3.50
2018-07-20T01:36:47.883Z,3.40
2018-07-20T01:39:15.490Z,3.97
2018-07-20T01:41:43.018Z,3.70
2018-07-20T01:44:10.484Z,3.83
2018-07-20T01:46:38.093Z,3.90
2018-07-20T01:49:05.613Z,3.63
2018-07-20T01:51:33.196Z,3.97
2018-07-20T01:54:00.667Z,3.57
2018-07-20T01:56:28.323Z,3.63
2018-07-20T01:58:55.818Z,3.50
2018-07-20T02:01:23.240Z,4.33
2018-07-20T02:03:50.755Z,3.80
2018-07-20T02:06:18.230Z,3.60
2018-07-20T02:08:45.857Z,4.07
2018-07-20T02:11:13.324Z,4.10
2018-07-20T02:13:40.802Z,4.20
2018-07-20T02:16:08.299Z,4.47
2018-07-20T02:18:35.812Z,3.70
2018-07-20T02:21:03.485Z,4.23
2018-07-20T02:23:30.931Z,4.10
2018-07-20T02:25:58.366Z,4.43
2018-07-20T02:28:25.911Z,3.30
2018-07-20T02:30:53.333Z,4.40
2018-07-20T02:33:20.881Z,3.37
2018-07-20T02:35:48.320Z,4.23
2018-07-20T02:38:15.807Z,4.27
2018-07-20T02:40:43.433Z,3.60
2018-07-20T02:43:10.916Z,4.60
2018-07-20T02:45:38.385Z,4.13
2018-07-20T02:48:06.021Z,4.00
2018-07-20T02:50:33.795Z,4.23
2018-07-20T02:53:01.297Z,3.23
2018-07-20T02:55:28.739Z,4.17
2018-07-20T02:57:56.241Z,4.60
2018-07-20T03:00:23.937Z,4.40
2018-07-20T03:02:51.416Z,3.87
2018-07-20T03:05:18.906Z,4.33
2018-07-20T03:07:46.353Z,4.87
2018-07-20T03:10:13.868Z,5.07
2018-07-20T03:12:41.289Z,3.97
2018-07-20T03:15:08.751Z,4.50
2018-07-20T03:17:36.176Z,4.17
2018-07-20T03:20:03.790Z,5.27
2018-07-20T03:22:31.421Z,4.70
2018-07-20T03:24:58.875Z,5.10
2018-07-20T03:27:26.285Z,4.77
2018-07-20T03:29:53.814Z,5.70
2018-07-20T03:32:21.405Z,4.40
2018-07-20T03:34:48.834Z,4.43
2018-07-20T03:37:16.514Z,4.50
2018-07-20T03:39:44.136Z,5.00
2018-07-20T03:42:11.660Z,4.90
2018-07-20T03:44:39.247Z,4.03
2018-07-20T03:47:06.731Z,4.87
2018-07-20T03:49:34.233Z,4.83
2018-07-20T03:52:01.838Z,4.80
2018-07-20T03:54:29.395Z,4.10
2018-07-20T03:56:56.961Z,4.57
2018-07-20T03:59:24.488Z,4.40
2018-07-20T04:01:51.975Z,4.60
2018-07-20T04:04:19.548Z,4.40
2018-07-20T04:06:47.026Z,4.97
2018-07-20T04:09:14.436Z,5.07
2018-07-20T04:11:41.935Z,4.77
2018-07-20T04:14:09.678Z,5.50
2018-07-20T04:16:37.401Z,5.00
2018-07-20T04:19:05.092Z,4.60
2018-07-20T04:21:32.609Z,4.33
2018-07-20T04:24:00.105Z,5.70
2018-07-20T04:26:27.665Z,4.90
2018-07-20T04:28:55.158Z,5.70
2018-07-20T04:31:22.751Z,4.83
2018-07-20T04:33:50.278Z,4.63
2018-07-20T04:36:17.970Z,5.50
2018-07-20T04:38:45.470Z,5.10
2018-07-20T04:41:12.987Z,5.80
2018-07-20T04:43:40.578Z,6.03
2018-07-20T04:46:08.068Z,5.03
2018-07-20T04:48:35.519Z,5.53
2018-07-20T04:51:03.006Z,4.97
2018-07-20T04:53:30.494Z,6.63
2018-07-20T04:55:58.025Z,5.90
2018-07-20T04:58:25.491Z,5.27
2018-07-20T05:00:53.015Z,8.30
2018-07-20T05:03:20.559Z,12.93
2018-07-20T05:05:48.164Z,6.80
2018-07-20T05:08:15.650Z,6.03
2018-07-20T05:10:43.133Z,5.47
2018-07-20T05:13:10.830Z,5.97
2018-07-20T05:15:38.421Z,5.87
2018-07-20T05:18:06.021Z,5.80
2018-07-20T05:20:33.578Z,6.53
2018-07-20T05:23:01.020Z,7.53
2018-07-20T05:25:28.522Z,17.33
2018-07-20T05:27:55.926Z,12.93
2018-07-20T05:30:23.435Z,9.23
2018-07-20T05:32:51.037Z,7.90
2018-07-20T05:35:18.503Z,8.67
2018-07-20T05:37:46.042Z,6.50
2018-07-20T05:40:13.999Z,5.83
2018-07-20T05:42:41.629Z,6.30
2018-07-20T05:45:09.122Z,5.53
2018-07-20T05:47:36.617Z,5.70
2018-07-20T05:50:06.022Z,5.10
2018-07-20T05:52:33.527Z,6.00
2018-07-20T05:55:01.086Z,5.63
2018-07-20T05:57:28.604Z,6.87
2018-07-20T05:59:56.145Z,6.50
2018-07-20T06:02:23.602Z,7.00
2018-07-20T06:04:51.183Z,6.27
2018-07-20T06:07:18.717Z,5.20
2018-07-20T06:09:46.227Z,6.77
2018-07-20T06:12:13.723Z,6.93
2018-07-20T06:14:41.231Z,7.23
2018-07-20T06:17:08.858Z,6.23
2018-07-20T06:19:36.254Z,6.23
2018-07-20T06:22:04.034Z,6.03
2018-07-20T06:24:31.748Z,6.03
2018-07-20T06:26:59.338Z,8.87
2018-07-20T06:29:26.760Z,7.57
2018-07-20T06:31:54.245Z,8.70
2018-07-20T06:34:21.693Z,9.37
2018-07-20T06:36:49.269Z,8.50
2018-07-20T06:39:16.969Z,7.20
2018-07-20T06:41:44.617Z,6.47
2018-07-20T06:44:12.091Z,7.87
2018-07-20T06:46:39.560Z,7.83
2018-07-20T06:49:07.550Z,6.93
2018-07-20T06:51:35.955Z,7.73
2018-07-20T06:54:03.860Z,9.23
2018-07-20T06:56:31.465Z,9.60
2018-07-20T06:58:59.062Z,7.70
2018-07-20T07:01:26.463Z,6.27
2018-07-20T07:03:53.916Z,6.40
2018-07-20T07:06:21.593Z,6.97
2018-07-20T07:08:49.142Z,7.13
2018-07-20T07:11:16.665Z,8.50
2018-07-20T07:13:44.243Z,7.10
2018-07-20T07:16:11.755Z,11.43
2018-07-20T07:18:39.435Z,9.50
2018-07-20T07:21:06.955Z,9.00
2018-07-20T07:23:34.939Z,10.30
2018-07-20T07:26:02.471Z,8.10
2018-07-20T07:28:29.869Z,7.87
2018-07-20T07:30:57.337Z,7.03
2018-07-20T07:33:24.775Z,6.43
2018-07-20T07:35:52.318Z,6.00
2018-07-20T07:38:19.721Z,12.97
2018-07-20T07:40:47.379Z,9.00
2018-07-20T07:43:14.793Z,6.63
2018-07-20T07:45:42.358Z,7.17
2018-07-20T07:48:09.910Z,6.90
2018-07-20T07:50:37.402Z,11.33
2018-07-20T07:53:04.923Z,11.17
2018-07-20T07:55:32.430Z,10.03
2018-07-20T07:57:59.889Z,8.83
2018-07-20T08:00:27.345Z,7.97
2018-07-20T08:02:54.805Z,7.00
2018-07-20T08:05:22.446Z,6.30
2018-07-20T08:07:49.849Z,7.30
2018-07-20T08:10:17.409Z,6.73
2018-07-20T08:12:44.911Z,8.43
2018-07-20T08:15:12.454Z,6.50
2018-07-20T08:17:39.908Z,5.60
2018-07-20T08:20:07.433Z,5.30
2018-07-20T08:22:34.851Z,5.17
2018-07-20T08:25:02.363Z,5.40
2018-07-20T08:27:29.790Z,9.17
2018-07-20T08:29:57.274Z,6.50
2018-07-20T08:32:24.712Z,5.23
2018-07-20T08:34:52.294Z,5.57
2018-07-20T08:37:19.832Z,4.43
2018-07-20T08:39:47.314Z,5.73
2018-07-20T08:42:14.761Z,6.60
2018-07-20T08:44:42.318Z,4.57
2018-07-20T08:47:09.790Z,6.10
2018-07-20T08:49:37.403Z,3.53
2018-07-20T08:52:05.053Z,3.77
2018-07-20T08:54:32.540Z,5.53
2018-07-20T08:57:00.087Z,5.50
2018-07-20T08:59:27.718Z,5.50
2018-07-20T09:01:55.424Z,4.83
2018-07-20T09:04:22.850Z,8.13
2018-07-20T09:06:50.327Z,4.83
2018-07-20T09:09:17.834Z,4.70
2018-07-20T09:11:45.354Z,5.80
2018-07-20T09:14:12.890Z,5.57
2018-07-20T09:16:40.456Z,6.13
2018-07-20T09:19:08.007Z,4.73
2018-07-20T09:21:35.475Z,7.03
2018-07-20T09:24:03.111Z,4.70
2018-07-20T09:26:30.693Z,5.00
2018-07-20T09:28:58.170Z,4.37
2018-07-20T09:31:25.747Z,5.93
2018-07-20T09:33:53.341Z,5.37
2018-07-20T09:36:20.856Z,5.03
2018-07-20T09:38:48.340Z,5.73
2018-07-20T09:41:15.765Z,5.47
2018-07-20T09:43:43.421Z,5.07
2018-07-20T09:46:11.043Z,5.50
2018-07-20T09:48:38.758Z,5.97
2018-07-20T09:51:06.316Z,6.47
2018-07-20T09:53:33.738Z,4.30
2018-07-20T09:56:01.282Z,5.87
2018-07-20T09:58:28.812Z,4.90
2018-07-20T10:00:56.290Z,5.00
2018-07-20T10:03:23.791Z,5.00
2018-07-20T10:05:51.252Z,4.37
2018-07-20T10:08:19.419Z,3.87
2018-07-20T10:10:47.409Z,4.53
2018-07-20T10:13:15.146Z,4.53
2018-07-20T10:15:43.149Z,4.60
2018-07-20T10:18:10.627Z,4.80
2018-07-20T10:20:38.040Z,4.30
2018-07-20T10:23:05.554Z,3.50
2018-07-20T10:25:33.689Z,14.67
2018-07-20T10:28:01.205Z,12.40
2018-07-20T10:30:28.800Z,10.37
2018-07-20T10:32:56.256Z,13.37
2018-07-20T10:35:23.781Z,9.87
2018-07-20T10:37:51.648Z,9.17
2018-07-20T10:40:26.543Z,7.10
2018-07-20T10:42:55.265Z,6.20
2018-07-20T10:45:22.818Z,4.70
2018-07-20T10:47:50.267Z,4.80
2018-07-20T10:50:18.067Z,5.60
2018-07-20T10:52:45.851Z,5.20
2018-07-20T10:55:13.439Z,4.07
2018-07-20T10:57:41.126Z,3.63
2018-07-20T11:00:09.097Z,3.50
2018-07-20T11:02:37.199Z,3.20
2018-07-20T11:05:05.285Z,5.20
2018-07-20T11:07:33.130Z,4.33
2018-07-20T11:10:00.638Z,3.80
2018-07-20T11:12:28.465Z,3.17
2018-07-20T11:14:56.501Z,4.17
2018-07-20T11:17:24.567Z,3.73
2018-07-20T11:19:52.074Z,3.60
2018-07-20T11:22:19.651Z,3.80
2018-07-20T11:24:47.682Z,2.97
2018-07-20T11:27:15.197Z,2.80
2018-07-20T11:29:42.694Z,3.20
2018-07-20T11:32:10.230Z,3.47
2018-07-20T11:34:37.987Z,3.10
2018-07-20T11:37:05.543Z,2.87
2018-07-20T11:39:33.426Z,16.97
2018-07-20T11:42:00.935Z,14.80
2018-07-20T11:44:29.415Z,7.60
2018-07-20T11:46:57.082Z,5.30
2018-07-20T11:49:24.695Z,11.97
2018-07-20T11:51:52.176Z,9.87
2018-07-20T11:54:19.613Z,9.13
2018-07-20T11:56:47.663Z,8.23
2018-07-20T11:59:15.080Z,6.60
2018-07-20T12:01:42.877Z,5.40
2018-07-20T12:04:10.499Z,4.60
2018-07-20T12:06:38.029Z,3.80
2018-07-20T12:09:07.727Z,3.60
2018-07-20T12:11:35.312Z,3.40
2018-07-20T12:14:02.989Z,4.17
2018-07-20T12:16:31.108Z,4.67
2018-07-20T12:18:58.777Z,5.10
2018-07-20T12:21:26.173Z,5.57
2018-07-20T12:23:54.092Z,4.80
2018-07-20T12:26:21.900Z,4.33
2018-07-20T12:28:49.428Z,4.03
2018-07-20T12:31:17.324Z,5.17
2018-07-20T12:33:44.749Z,4.40
2018-07-20T12:36:12.406Z,4.00
2018-07-20T12:38:39.870Z,4.10
2018-07-20T12:41:07.619Z,4.10
2018-07-20T12:43:35.393Z,4.27
2018-07-20T12:46:03.747Z,3.77
2018-07-20T12:48:31.815Z,4.87
2018-07-20T12:50:59.296Z,4.83
2018-07-20T12:53:27.027Z,4.70
2018-07-20T12:55:54.834Z,4.53
2018-07-20T12:58:22.435Z,4.90
2018-07-20T13:00:50.093Z,3.60
2018-07-20T13:03:17.725Z,4.53
2018-07-20T13:05:45.176Z,4.50
2018-07-20T13:08:12.636Z,3.60
2018-07-20T13:10:40.251Z,3.40
2018-07-20T13:13:08.464Z,2.97
2018-07-20T13:15:35.945Z,3.23
2018-07-20T13:18:04.631Z,3.00
2018-07-20T13:20:32.362Z,3.50
2018-07-20T13:22:59.768Z,3.43
2018-07-20T13:25:27.497Z,3.20
2018-07-20T13:27:54.986Z,3.87
2018-07-20T13:30:22.558Z,3.60
2018-07-20T13:32:50.175Z,4.07
2018-07-20T13:35:17.755Z,4.40
2018-07-20T13:37:45.253Z,3.83
2018-07-20T13:40:12.877Z,3.63
2018-07-20T13:42:40.364Z,3.10
2018-07-20T13:45:08.163Z,4.00
2018-07-20T13:47:35.786Z,4.10
2018-07-20T13:50:04.512Z,3.70
2018-07-20T13:52:32.369Z,3.00
2018-07-20T13:54:59.786Z,3.43
2018-07-20T13:57:27.257Z,3.83
2018-07-20T13:59:54.755Z,3.23
2018-07-20T14:02:22.271Z,3.60
2018-07-20T14:04:49.825Z,3.00
2018-07-20T14:07:17.425Z,4.03
2018-07-20T14:09:44.922Z,3.93
2018-07-20T14:12:12.513Z,3.37
2018-07-20T14:14:39.931Z,4.03
2018-07-20T14:17:07.457Z,3.90
2018-07-20T14:19:34.838Z,3.90
2018-07-20T14:22:02.413Z,2.93
2018-07-20T14:24:30.268Z,3.20
2018-07-20T14:26:57.781Z,4.00
2018-07-20T14:29:25.211Z,3.67
2018-07-20T14:31:52.778Z,3.30
2018-07-20T14:34:20.179Z,3.40
2018-07-20T14:36:47.669Z,3.67
2018-07-20T14:39:15.085Z,3.90
2018-07-20T14:41:42.602Z,3.87
2018-07-20T14:44:10.257Z,4.67
2018-07-20T14:46:37.690Z,4.20
2018-07-20T14:49:05.166Z,4.50
2018-07-20T14:51:32.676Z,3.73
2018-07-20T14:54:00.501Z,3.70
2018-07-20T14:56:28.054Z,4.40
2018-07-20T14:58:55.515Z,4.77
2018-07-20T15:01:22.951Z,4.20
2018-07-20T15:03:50.549Z,4.60
2018-07-20T15:06:18.021Z,5.00
2018-07-20T15:08:45.546Z,4.97
2018-07-20T15:11:13.006Z,4.83
2018-07-20T15:13:40.502Z,4.50
2018-07-20T15:16:08.149Z,4.70
2018-07-20T15:18:35.679Z,4.70
2018-07-20T15:21:03.212Z,4.03
2018-07-20T15:23:30.801Z,4.43
2018-07-20T15:25:58.257Z,5.57
2018-07-20T15:28:25.773Z,4.80
2018-07-20T15:30:53.365Z,4.13
2018-07-20T15:33:20.954Z,4.80
2018-07-20T15:35:48.470Z,5.00
2018-07-20T15:38:15.981Z,5.00
2018-07-20T15:40:43.431Z,5.23
2018-07-20T15:43:11.181Z,4.90
2018-07-20T15:45:38.654Z,5.47
2018-07-20T15:48:06.337Z,4.30
2018-07-20T15:50:33.935Z,5.07
2018-07-20T15:55:29.069Z,5.10
2018-07-20T15:57:57.326Z,5.63
2018-07-20T16:00:24.869Z,5.27
2018-07-20T16:02:52.358Z,4.10
2018-07-20T16:05:19.845Z,4.00
2018-07-20T16:07:47.370Z,4.40
2018-07-20T16:10:14.922Z,4.97
2018-07-20T16:12:42.451Z,4.30
2018-07-20T16:15:10.128Z,4.77
2018-07-20T16:17:37.650Z,5.53
2018-07-20T16:20:05.435Z,5.10
2018-07-20T16:22:32.969Z,5.27
2018-07-20T16:25:00.522Z,6.30
2018-07-20T16:27:28.137Z,5.10
2018-07-20T16:29:55.633Z,5.53
2018-07-20T16:32:23.242Z,5.47
2018-07-20T16:34:50.745Z,6.30
2018-07-20T16:37:18.210Z,6.47
2018-07-20T16:39:45.631Z,6.20
2018-07-20T16:42:13.190Z,6.23
2018-07-20T16:44:40.762Z,6.80
2018-07-20T16:47:08.225Z,6.23
2018-07-20T16:49:35.707Z,6.63
2018-07-20T16:52:03.222Z,6.10
2018-07-20T16:54:30.933Z,5.50
2018-07-20T16:56:58.500Z,6.30
2018-07-20T16:59:26.075Z,5.40
2018-07-20T17:01:53.581Z,5.40
2018-07-20T17:04:20.997Z,6.60
2018-07-20T17:06:48.494Z,5.50
2018-07-20T17:09:15.990Z,5.40
2018-07-20T17:11:43.441Z,5.30
2018-07-20T17:14:10.994Z,5.43
2018-07-20T17:16:38.517Z,5.53
2018-07-20T17:19:06.056Z,4.80
2018-07-20T17:21:33.751Z,5.93
2018-07-20T17:24:01.300Z,5.53
2018-07-20T17:26:28.768Z,5.10
2018-07-20T17:28:56.218Z,6.40
2018-07-20T17:31:23.766Z,5.87
2018-07-20T17:33:51.201Z,4.80
2018-07-20T17:36:18.630Z,4.90
2018-07-20T17:38:46.146Z,5.17
2018-07-20T17:41:13.631Z,4.67
2018-07-20T17:43:41.159Z,4.90
2018-07-20T17:46:09.563Z,4.90
2018-07-20T17:48:37.025Z,4.50
2018-07-20T17:51:04.618Z,5.03
2018-07-20T17:53:32.169Z,4.70
2018-07-20T17:55:59.986Z,4.50
2018-07-20T17:58:27.562Z,3.80
2018-07-20T18:00:55.078Z,4.23
2018-07-20T18:03:22.532Z,4.10
2018-07-20T18:05:50.134Z,4.60
2018-07-20T18:08:17.681Z,3.80
2018-07-20T18:10:45.239Z,4.67
2018-07-20T18:13:12.741Z,4.70
2018-07-20T18:15:40.232Z,4.63
2018-07-20T18:18:07.782Z,4.53
2018-07-20T18:20:35.290Z,3.80
2018-07-20T18:23:02.831Z,3.50
2018-07-20T18:25:30.237Z,4.53
2018-07-20T18:27:57.721Z,4.00
2018-07-20T18:30:25.202Z,4.33
2018-07-20T18:32:52.641Z,3.20
2018-07-20T18:35:20.252Z,3.60
2018-07-20T18:37:47.761Z,3.30
2018-07-20T18:40:15.277Z,3.60
2018-07-20T18:42:42.822Z,3.73
2018-07-20T18:45:10.511Z,4.63
2018-07-20T18:47:38.190Z,3.60
2018-07-20T18:50:07.002Z,4.20
2018-07-20T18:52:35.162Z,3.80
2018-07-20T18:55:02.574Z,3.70
2018-07-20T18:57:30.019Z,3.80
2018-07-20T18:59:57.513Z,3.27
2018-07-20T19:02:24.999Z,3.70
2018-07-20T19:04:52.477Z,3.30
2018-07-20T19:07:19.917Z,3.37
2018-07-20T19:09:47.494Z,2.90
2018-07-20T19:12:14.933Z,3.10
2018-07-20T19:14:42.415Z,3.73
2018-07-20T19:17:09.964Z,3.03
2018-07-20T19:19:37.545Z,3.50
2018-07-20T19:22:07.056Z,2.90
2018-07-20T19:24:34.747Z,3.20
2018-07-20T19:27:02.340Z,2.80
2018-07-20T19:29:29.817Z,2.70
2018-07-20T19:31:57.263Z,3.80
2018-07-20T19:34:24.850Z,3.27
2018-07-20T19:36:52.222Z,2.87
2018-07-20T19:39:19.677Z,2.93
2018-07-20T19:41:47.274Z,2.93
2018-07-20T19:44:14.770Z,3.00
2018-07-20T19:46:42.184Z,2.87
2018-07-20T19:49:09.727Z,2.93
2018-07-20T19:51:37.205Z,3.10
2018-07-20T19:54:04.921Z,3.43
2018-07-20T19:56:32.519Z,2.37
2018-07-20T19:58:59.893Z,2.90
2018-07-20T20:01:27.358Z,3.30
2018-07-20T20:03:54.838Z,3.00
2018-07-20T20:06:22.324Z,3.67
2018-07-20T20:08:49.774Z,2.80
2018-07-20T20:11:17.351Z,2.80
2018-07-20T20:13:44.790Z,2.47
2018-07-20T20:16:12.205Z,3.20
2018-07-20T20:18:39.703Z,3.07
2018-07-20T20:21:07.145Z,3.13
2018-07-20T20:23:34.575Z,3.70
2018-07-20T20:26:02.114Z,2.90
2018-07-20T20:28:29.555Z,2.40
2018-07-20T20:30:57.065Z,2.90
2018-07-20T20:33:24.571Z,2.73
2018-07-20T20:35:52.050Z,3.00
2018-07-20T20:38:19.570Z,3.03
2018-07-20T20:40:47.004Z,3.00
2018-07-20T20:43:14.438Z,3.07
2018-07-20T20:45:41.853Z,3.10
2018-07-20T20:48:09.389Z,2.90
2018-07-20T20:50:36.876Z,3.47
2018-07-20T20:53:04.661Z,2.40
2018-07-20T20:55:32.121Z,2.93
2018-07-20T20:57:59.537Z,3.70
2018-07-20T21:00:27.044Z,2.50
2018-07-20T21:02:54.514Z,2.77
2018-07-20T21:05:22.047Z,3.53
2018-07-20T21:07:49.618Z,2.93
2018-07-20T21:10:17.082Z,2.60
2018-07-20T21:12:44.583Z,3.07
2018-07-20T21:15:12.125Z,2.53
2018-07-20T21:17:39.623Z,2.87
2018-07-20T21:20:07.073Z,2.60
2018-07-20T21:22:34.585Z,2.70
2018-07-20T21:25:02.118Z,2.90
2018-07-20T21:27:29.633Z,3.07
2018-07-20T21:29:57.157Z,2.70
2018-07-20T21:32:24.707Z,2.67
2018-07-20T21:34:52.267Z,3.30
2018-07-20T21:37:19.753Z,3.23
2018-07-20T21:39:47.188Z,2.87
2018-07-20T21:42:14.671Z,2.40
2018-07-20T21:44:42.741Z,2.70
2018-07-20T21:47:10.220Z,2.50
2018-07-20T21:49:37.697Z,2.87
2018-07-20T21:52:05.427Z,2.90
2018-07-20T21:54:32.939Z,2.87
2018-07-20T21:57:00.322Z,2.93
2018-07-20T21:59:27.801Z,2.77
2018-07-20T22:01:55.296Z,2.83
2018-07-20T22:04:23.054Z,2.80
2018-07-20T22:06:50.587Z,2.67
2018-07-20T22:09:17.991Z,2.60
2018-07-20T22:11:45.476Z,2.50
2018-07-20T22:14:13.027Z,2.73
2018-07-20T22:16:40.642Z,2.73
2018-07-20T22:19:08.098Z,2.50
2018-07-20T22:21:35.512Z,2.73
2018-07-20T22:24:03.073Z,2.60
2018-07-20T22:26:30.792Z,2.57
2018-07-20T22:28:58.318Z,3.13
2018-07-20T22:31:25.858Z,2.83
2018-07-20T22:33:53.347Z,2.37
2018-07-20T22:36:20.823Z,2.87
2018-07-20T22:38:48.304Z,3.20
2018-07-20T22:41:15.706Z,3.63
2018-07-20T22:43:43.284Z,3.20
2018-07-20T22:46:10.840Z,3.23
2018-07-20T22:48:38.277Z,3.10
2018-07-20T22:51:05.962Z,2.70
2018-07-20T22:53:33.372Z,3.27
2018-07-20T22:56:00.791Z,3.17
2018-07-20T22:58:28.378Z,3.37
2018-07-20T23:00:55.795Z,3.03
2018-07-20T23:03:23.419Z,3.23
2018-07-20T23:05:51.095Z,3.30
2018-07-20T23:08:18.640Z,2.67
2018-07-20T23:10:46.257Z,3.20
2018-07-20T23:13:13.714Z,3.20
2018-07-20T23:15:41.223Z,3.00
2018-07-20T23:18:08.674Z,2.93
2018-07-20T23:20:36.255Z,2.80
2018-07-20T23:23:03.710Z,2.40
2018-07-20T23:25:31.281Z,3.17
2018-07-20T23:27:58.722Z,2.73
2018-07-20T23:30:26.381Z,2.80
2018-07-20T23:32:54.170Z,2.67
2018-07-20T23:35:21.627Z,2.33
2018-07-20T23:37:49.054Z,2.87
2018-07-20T23:40:16.541Z,3.13
2018-07-20T23:42:44.077Z,2.63
2018-07-20T23:45:11.763Z,2.80
2018-07-20T23:47:39.204Z,3.50
2018-07-20T23:50:06.622Z,3.03
2018-07-20T23:52:34.219Z,2.70
2018-07-20T23:55:01.662Z,2.60
2018-07-20T23:57:29.155Z,4.00
2018-07-20T23:59:56.619Z,2.87
